createdAt,value
2018-12-12T00:01:25.187Z,5.85
2018-12-12T00:03:59.882Z,5.60
2018-12-12T00:06:34.542Z,6.35
2018-12-12T00:09:07.335Z,6.37
2018-12-12T00:11:41.867Z,6.72
2018-12-12T00:14:14.462Z,6.53
2018-12-12T00:16:46.980Z,6.45
2018-12-12T00:19:19.592Z,6.17
2018-12-12T00:21:52.222Z,6.00
2018-12-12T00:24:24.783Z,6.25
2018-12-12T00:26:57.444Z,6.22
2018-12-12T00:29:35.658Z,7.53
2018-12-12T00:32:08.209Z,6.35
2018-12-12T00:34:40.729Z,6.47
2018-12-12T00:37:13.478Z,6.58
2018-12-12T00:39:46.139Z,6.30
2018-12-12T00:42:18.739Z,6.75
2018-12-12T00:44:52.233Z,6.72
2018-12-12T00:47:24.855Z,6.80
2018-12-12T00:49:57.485Z,6.42
2018-12-12T00:52:30.124Z,6.37
2018-12-12T00:55:02.833Z,6.15
2018-12-12T00:57:35.754Z,7.05
2018-12-12T01:00:08.517Z,6.10
2018-12-12T01:02:41.275Z,7.05
2018-12-12T01:05:13.834Z,6.70
2018-12-12T01:07:46.414Z,6.10
2018-12-12T01:10:19.107Z,7.42
2018-12-12T01:12:51.730Z,6.92
2018-12-12T01:15:25.040Z,6.72
2018-12-12T01:17:57.726Z,7.62
2018-12-12T01:20:30.443Z,7.58
2018-12-12T01:23:03.663Z,6.10
2018-12-12T01:25:36.853Z,6.37
2018-12-12T01:28:09.399Z,6.53
2018-12-12T01:30:42.642Z,6.10
2018-12-12T01:33:15.243Z,6.83
2018-12-12T01:35:47.809Z,6.55
2018-12-12T01:38:20.432Z,6.17
2018-12-12T01:40:53.612Z,8.50
2018-12-12T01:43:26.203Z,6.65
2018-12-12T01:45:58.790Z,6.95
2018-12-12T01:48:31.626Z,5.72
2018-12-12T01:51:04.245Z,6.55
2018-12-12T01:53:36.822Z,6.08
2018-12-12T01:56:09.356Z,6.03
2018-12-12T01:58:41.983Z,6.80
2018-12-12T02:01:14.541Z,6.50
2018-12-12T02:03:47.147Z,5.90
2018-12-12T02:06:19.766Z,6.80
2018-12-12T02:08:53.378Z,6.58
2018-12-12T02:11:25.988Z,7.45
2018-12-12T02:15:28.129Z,6.55
2018-12-12T02:18:02.911Z,5.80
2018-12-12T02:20:35.599Z,6.45
2018-12-12T02:23:08.099Z,6.85
2018-12-12T02:25:40.757Z,6.30
2018-12-12T02:28:13.334Z,6.58
2018-12-12T02:30:45.876Z,6.70
2018-12-12T02:33:18.414Z,5.62
2018-12-12T02:35:51.677Z,6.83
2018-12-12T02:38:24.225Z,7.22
2018-12-12T02:40:57.897Z,7.30
2018-12-12T02:43:31.124Z,6.78
2018-12-12T02:46:03.857Z,6.22
2018-12-12T02:48:36.542Z,6.40
2018-12-12T02:51:09.166Z,6.40
2018-12-12T02:53:43.332Z,7.05
2018-12-12T02:56:15.872Z,7.08
2018-12-12T02:58:48.390Z,6.80
2018-12-12T03:01:20.982Z,6.15
2018-12-12T03:03:53.586Z,6.87
2018-12-12T03:06:26.247Z,7.00
2018-12-12T03:08:58.806Z,6.42
2018-12-12T03:11:31.282Z,8.10
2018-12-12T03:14:03.878Z,6.92
2018-12-12T03:16:37.543Z,7.25
2018-12-12T03:19:10.092Z,7.28
2018-12-12T03:21:42.723Z,7.17
2018-12-12T03:24:15.225Z,6.62
2018-12-12T03:26:47.937Z,7.30
2018-12-12T03:29:20.574Z,6.20
2018-12-12T03:31:54.405Z,6.95
2018-12-12T03:34:27.025Z,6.85
2018-12-12T03:36:59.723Z,6.53
2018-12-12T03:39:35.131Z,7.33
2018-12-12T03:42:07.746Z,7.78
2018-12-12T03:44:40.345Z,7.30
2018-12-12T03:47:12.991Z,6.33
2018-12-12T03:49:45.522Z,8.30
2018-12-12T03:52:18.036Z,8.38
2018-12-12T03:54:50.621Z,7.95
2018-12-12T03:57:23.966Z,7.53
2018-12-12T03:59:56.492Z,7.35
2018-12-12T04:02:29.086Z,7.58
2018-12-12T04:05:02.183Z,6.45
2018-12-12T04:07:36.080Z,6.53
2018-12-12T04:10:08.631Z,7.15
2018-12-12T04:12:41.964Z,6.60
2018-12-12T04:15:15.541Z,6.37
2018-12-12T04:17:48.316Z,7.65
2018-12-12T04:20:20.899Z,8.28
2018-12-12T04:22:54.094Z,7.97
2018-12-12T04:25:26.977Z,7.90
2018-12-12T04:27:59.664Z,8.13
2018-12-12T04:30:32.356Z,8.68
2018-12-12T04:33:04.923Z,7.97
2018-12-12T04:35:37.513Z,7.62
2018-12-12T04:38:10.088Z,7.50
2018-12-12T04:40:44.434Z,7.65
2018-12-12T04:43:17.048Z,8.70
2018-12-12T04:45:49.624Z,7.55
2018-12-12T04:48:23.019Z,9.18
2018-12-12T04:50:55.661Z,8.48
2018-12-12T04:53:28.244Z,8.70
2018-12-12T04:56:00.893Z,9.30
2018-12-12T04:58:33.505Z,8.20
2018-12-12T05:01:06.156Z,7.87
2018-12-12T05:03:38.735Z,8.53
2018-12-12T05:06:11.387Z,8.05
2018-12-12T05:08:43.943Z,8.45
2018-12-12T05:11:16.548Z,9.83
2018-12-12T14:15:40.383Z,10.32
2018-12-12T14:18:14.002Z,9.20
2018-12-12T14:20:46.595Z,9.75
2018-12-12T14:23:19.196Z,9.60
2018-12-12T14:25:52.971Z,9.48
2018-12-12T14:28:28.626Z,9.98
2018-12-12T14:31:02.108Z,11.10
2018-12-12T14:33:34.863Z,9.30
2018-12-12T14:36:07.394Z,10.25
2018-12-12T14:38:40.048Z,9.53
2018-12-12T14:41:13.447Z,9.55
2018-12-12T14:43:46.042Z,9.05
2018-12-12T14:46:18.593Z,8.48
2018-12-12T14:48:53.839Z,9.35
2018-12-12T14:51:26.374Z,9.15
2018-12-12T14:53:59.064Z,8.73
2018-12-12T14:56:32.254Z,9.90
2018-12-12T14:59:04.935Z,8.50
2018-12-12T15:01:38.504Z,9.35
2018-12-12T15:04:11.066Z,7.50
2018-12-12T15:06:44.413Z,9.35
2018-12-12T15:09:17.011Z,8.43
2018-12-12T15:11:49.567Z,8.10
2018-12-12T15:14:22.931Z,7.30
2018-12-12T15:16:55.500Z,7.37
2018-12-12T15:19:28.201Z,7.50
2018-12-12T15:22:00.820Z,8.03
2018-12-12T15:24:35.564Z,7.90
2018-12-12T15:27:08.463Z,7.55
2018-12-12T15:29:41.126Z,7.35
2018-12-12T15:32:13.770Z,8.55
2018-12-12T15:34:46.395Z,9.10
2018-12-12T15:37:19.056Z,8.08
2018-12-12T15:39:52.759Z,9.00
2018-12-12T15:42:27.583Z,9.30
2018-12-12T15:45:00.263Z,10.35
2018-12-12T15:47:32.982Z,9.33
2018-12-12T15:50:05.680Z,9.30
2018-12-12T15:52:38.357Z,9.60
2018-12-12T15:55:11.044Z,10.23
2018-12-12T15:57:43.683Z,8.95
2018-12-12T16:00:16.911Z,10.05
2018-12-12T16:02:49.576Z,10.93
2018-12-12T16:05:22.466Z,10.65
2018-12-12T16:07:55.166Z,11.05
2018-12-12T16:10:27.807Z,10.98
2018-12-12T16:13:00.723Z,11.50
2018-12-12T16:15:35.812Z,10.43
2018-12-12T16:18:08.510Z,11.40
2018-12-12T16:20:41.212Z,11.00
2018-12-12T16:23:13.891Z,10.53
2018-12-12T16:25:46.813Z,11.35
2018-12-12T16:28:19.473Z,10.70
2018-12-12T16:30:52.209Z,10.85
2018-12-12T16:33:24.923Z,12.85
2018-12-12T16:35:58.563Z,11.65
2018-12-12T16:38:35.033Z,12.35
2018-12-12T16:41:07.917Z,11.88
2018-12-12T16:43:42.685Z,11.80
2018-12-12T16:46:17.322Z,12.43
2018-12-12T16:48:49.994Z,12.10
2018-12-12T16:51:23.300Z,12.90
2018-12-12T16:53:55.941Z,12.30
2018-12-12T16:56:29.182Z,12.50
2018-12-12T16:59:03.356Z,12.65
2018-12-12T17:01:36.117Z,12.15
2018-12-12T17:04:08.682Z,12.30
2018-12-12T17:06:41.490Z,13.30
2018-12-12T17:09:14.211Z,13.05
2018-12-12T17:11:46.856Z,14.07
2018-12-12T17:14:21.452Z,13.98
2018-12-12T17:16:54.641Z,14.40
2018-12-12T17:19:27.202Z,11.70
2018-12-12T17:21:59.911Z,13.13
2018-12-12T17:24:32.615Z,13.13
2018-12-12T17:27:05.334Z,12.65
2018-12-12T17:29:38.016Z,12.90
2018-12-12T17:32:10.722Z,12.98
2018-12-12T17:34:43.373Z,12.35
2018-12-12T17:37:15.999Z,14.60
2018-12-12T17:39:48.604Z,12.07
2018-12-12T17:42:21.888Z,14.30
2018-12-12T17:44:55.242Z,12.58
2018-12-12T17:47:28.221Z,14.53
2018-12-12T17:50:01.299Z,14.55
2018-12-12T17:52:35.933Z,15.70
2018-12-12T17:55:09.710Z,15.80
2018-12-12T17:57:43.624Z,15.28
2018-12-12T18:00:17.615Z,16.77
2018-12-12T18:02:53.213Z,16.05
2018-12-12T18:05:32.041Z,16.20
2018-12-12T18:08:04.966Z,16.35
2018-12-12T18:10:37.758Z,15.53
2018-12-12T18:13:10.636Z,17.10
2018-12-12T18:15:47.382Z,16.62
2018-12-12T18:18:23.437Z,18.10
2018-12-12T18:20:58.523Z,17.80
2018-12-12T18:23:33.339Z,18.00
2018-12-12T18:26:08.082Z,18.50
2018-12-12T18:28:41.413Z,20.48
2018-12-12T18:31:14.159Z,21.40
2018-12-12T18:33:49.404Z,18.70
2018-12-12T18:36:24.156Z,18.57
2018-12-12T18:38:56.799Z,18.55
2018-12-12T18:41:29.853Z,18.20
2018-12-12T18:44:04.594Z,17.95
2018-12-12T18:46:37.270Z,18.17
2018-12-12T18:49:09.880Z,17.27
2018-12-12T18:51:46.237Z,18.00
2018-12-12T18:54:20.891Z,19.30
2018-12-12T18:56:56.359Z,17.85
2018-12-12T18:59:29.007Z,16.37
2018-12-12T19:02:01.663Z,17.45
2018-12-12T19:04:34.380Z,19.17
2018-12-12T19:07:08.082Z,15.95
2018-12-12T19:09:59.553Z,17.42
2018-12-12T19:12:34.541Z,16.50
2018-12-12T19:15:07.881Z,15.80
2018-12-12T19:17:40.866Z,14.00
2018-12-12T19:20:14.563Z,15.15
2018-12-12T19:22:47.121Z,15.75
2018-12-12T19:25:19.768Z,15.63
2018-12-12T19:27:52.529Z,14.80
2018-12-12T19:30:25.163Z,14.50
2018-12-12T19:37:40.260Z,12.95
2018-12-12T19:40:13.775Z,13.15
2018-12-12T19:42:46.354Z,15.05
2018-12-12T19:45:19.025Z,12.60
2018-12-12T19:47:57.719Z,10.90
2018-12-12T19:50:30.361Z,13.40
2018-12-12T19:53:03.007Z,13.70
2018-12-12T19:55:35.839Z,14.18
2018-12-12T19:58:08.826Z,13.40
2018-12-12T20:00:41.632Z,13.55
2018-12-12T20:03:15.235Z,13.20
2018-12-12T20:05:47.911Z,14.47
2018-12-12T20:08:20.552Z,11.90
2018-12-12T20:10:53.203Z,12.68
2018-12-12T20:13:25.956Z,11.68
2018-12-12T20:15:58.659Z,11.57
2018-12-12T20:18:31.307Z,12.07
2018-12-12T20:21:04.000Z,11.60
2018-12-12T20:23:36.607Z,12.58
2018-12-12T20:26:09.710Z,12.30
2018-12-12T20:28:43.583Z,11.65
2018-12-12T20:31:16.299Z,11.60
2018-12-12T20:33:48.929Z,11.85
2018-12-12T20:36:23.720Z,12.50
2018-12-12T20:38:56.514Z,11.00
2018-12-12T20:41:30.067Z,18.50
2018-12-12T20:44:02.794Z,13.35
2018-12-12T20:46:35.690Z,13.10
2018-12-12T20:49:08.327Z,13.20
2018-12-12T20:51:41.089Z,12.55
2018-12-12T20:54:14.680Z,12.45
2018-12-12T20:56:47.396Z,12.82
2018-12-12T20:59:21.446Z,12.93
2018-12-12T21:01:54.301Z,13.30
2018-12-12T21:04:27.152Z,12.90
2018-12-12T21:07:01.372Z,12.10
2018-12-12T21:09:35.755Z,13.20
2018-12-12T21:12:08.697Z,12.65
2018-12-12T21:14:41.454Z,11.50
2018-12-12T21:17:15.319Z,11.68
2018-12-12T21:19:47.951Z,12.25
2018-12-12T21:22:20.617Z,13.88
2018-12-12T21:24:54.478Z,12.35
2018-12-12T21:27:27.365Z,12.85
2018-12-12T21:30:00.223Z,13.38
2018-12-12T21:32:33.972Z,12.55
2018-12-12T21:35:07.596Z,12.23
2018-12-12T21:37:40.778Z,15.28
2018-12-12T21:40:13.931Z,13.95
2018-12-12T21:42:47.214Z,13.72
2018-12-12T21:45:19.847Z,15.65
2018-12-12T21:47:52.560Z,13.93
2018-12-12T21:50:25.175Z,14.13
2018-12-12T21:52:57.789Z,13.90
2018-12-12T21:55:30.486Z,14.73
2018-12-12T21:58:04.135Z,16.60
2018-12-12T22:00:36.725Z,14.75
2018-12-12T22:03:09.377Z,15.38
2018-12-12T22:05:42.490Z,14.00
2018-12-12T22:08:15.473Z,13.40
2018-12-12T22:10:48.082Z,14.95
2018-12-12T22:13:20.669Z,14.93
2018-12-12T22:15:53.267Z,15.88
2018-12-12T22:19:29.229Z,15.32
2018-12-12T22:22:01.735Z,15.60
2018-12-12T22:24:34.509Z,16.12
2018-12-12T22:27:07.122Z,16.40
2018-12-12T22:29:39.757Z,16.65
2018-12-12T22:32:12.370Z,16.07
2018-12-12T22:34:45.854Z,16.17
2018-12-12T22:37:18.394Z,14.10
2018-12-12T22:39:51.000Z,14.10
2018-12-12T22:42:23.610Z,15.88
2018-12-12T22:44:56.228Z,16.65
2018-12-12T22:47:29.046Z,17.40
2018-12-12T22:50:01.790Z,16.85
2018-12-12T22:52:35.565Z,15.40
2018-12-12T22:55:08.289Z,15.40
2018-12-12T22:57:40.898Z,16.42
2018-12-12T23:00:19.279Z,17.30
2018-12-12T23:02:53.907Z,16.67
2018-12-12T23:05:26.547Z,16.35
2018-12-12T23:07:59.170Z,16.90
2018-12-12T23:10:31.786Z,17.75
2018-12-12T23:13:04.503Z,16.62
2018-12-12T23:15:37.853Z,16.25
2018-12-12T23:18:10.564Z,19.95
2018-12-12T23:20:43.112Z,20.23
2018-12-12T23:23:15.825Z,17.90
2018-12-12T23:25:48.456Z,17.73
2018-12-12T23:28:21.113Z,19.35
2018-12-12T23:30:53.720Z,20.12
2018-12-12T23:33:26.314Z,18.55
2018-12-12T23:35:58.897Z,19.57
2018-12-12T23:38:31.509Z,20.40
2018-12-12T23:41:04.187Z,22.07
2018-12-12T23:43:36.751Z,19.23
2018-12-12T23:46:09.408Z,20.12
2018-12-12T23:48:42.083Z,18.37
2018-12-12T23:51:16.536Z,20.60
2018-12-12T23:53:49.171Z,21.25
2018-12-12T23:56:21.711Z,20.60
2018-12-12T23:58:54.374Z,21.40
